This is the latest recevied weather packets stored in our database for station/object SA7AHC. If no packets are shown the sender has not sent any weather packets the latest 10 day(s).
| Time | Temp. | Humidity | Pressure | Rain* | Wind** | Luminosity | Snow |
|---|---|---|---|---|---|---|---|
| 1788095528 | 17.22° C | 93% | 1005.4 hPa | 0.51 mm | - | 142 W/m² | - |
| 1788094925 | 17.22° C | 92% | 1005.4 hPa | 0.25 mm | - | 250 W/m² | - |
| 1788094323 | 17.22° C | 89% | 1005.6 hPa | 0 mm | - | 16 W/m² | - |
| 1788093725 | 17.78° C | 88% | 1005.7 hPa | 0 mm | - | 37 W/m² | - |
| 1788093122 | 17.78° C | 89% | 1005.8 hPa | 0 mm | - | 95 W/m² | - |
| 1788092525 | 17.78° C | 89% | 1005.9 hPa | 0 mm | - | 91 W/m² | - |
| 1788091922 | 17.78° C | 88% | 1005.9 hPa | 0 mm | - | 95 W/m² | - |
| 1788091321 | 17.78° C | 87% | 1005.8 hPa | 0 mm | - | 95 W/m² | - |
| 1788090721 | 17.78° C | 87% | 1005.9 hPa | 0 mm | - | 204 W/m² | - |
| 1788090121 | 17.78° C | 86% | 1005.9 hPa | 0 mm | - | 220 W/m² | - |
| 1788089521 | 18.33° C | 85% | 1006 hPa | 0 mm | - | 83 W/m² | - |
| 1788088921 | 18.33° C | 84% | 1006 hPa | 0 mm | - | 83 W/m² | - |
| 1788088324 | 18.33° C | 85% | 1006 hPa | 0 mm | - | 158 W/m² | - |
| 1788087721 | 17.78° C | 87% | 1006.3 hPa | 0 mm | - | 320 W/m² | - |
| 1788087121 | 17.78° C | 86% | 1006.4 hPa | 0 mm | - | 206 W/m² | - |
| 1788086522 | 17.78° C | 87% | 1006.4 hPa | 0 mm | - | 165 W/m² | - |
| 1788085922 | 17.78° C | 87% | 1006.4 hPa | 0 mm | - | 146 W/m² | - |
| 1788085323 | 17.78° C | 88% | 1006.5 hPa | 0 mm | - | 290 W/m² | - |
| 1788084722 | 17.78° C | 87% | 1006.5 hPa | 0 mm | - | 123 W/m² | - |
| 1788084122 | 17.78° C | 88% | 1006.4 hPa | 0 mm | - | 190 W/m² | - |
| 1788083523 | 17.78° C | 89% | 1006.7 hPa | 0 mm | - | 258 W/m² | - |
| 1788082926 | 17.78° C | 89% | 1006.7 hPa | 0 mm | - | 206 W/m² | - |
| 1788082325 | 17.78° C | 92% | 1006.7 hPa | 0 mm | - | 359 W/m² | - |
| 1788081721 | 17.22° C | 94% | 1006.8 hPa | 0 mm | - | 332 W/m² | - |
| 1788081121 | 16.67° C | 95% | 1006.8 hPa | 0 mm | - | 343 W/m² | - |
* Rain latest hour (hover to see other rain measurements)
** Current wind speed in m/s (hover to see current wind gust speed)